sensor_id;sensor_type;location;lat;lon;timestamp;P1;durP1;ratioP1;P2;durP2;ratioP2
74849;SDS011;63397;47.480;19.238;2023-03-18T00:02:08;6.45;;;1.67;;
74849;SDS011;63397;47.480;19.238;2023-03-18T00:05:10;4.90;;;1.65;;
74849;SDS011;63397;47.480;19.238;2023-03-18T00:08:14;3.67;;;1.60;;
74849;SDS011;63397;47.480;19.238;2023-03-18T00:11:16;6.20;;;2.03;;
74849;SDS011;63397;47.480;19.238;2023-03-18T00:14:19;4.50;;;1.53;;
74849;SDS011;63397;47.480;19.238;2023-03-18T00:17:21;6.93;;;1.90;;
74849;SDS011;63397;47.480;19.238;2023-03-18T00:20:23;4.18;;;1.75;;
74849;SDS011;63397;47.480;19.238;2023-03-18T00:23:39;5.72;;;1.75;;
74849;SDS011;63397;47.480;19.238;2023-03-18T00:26:41;6.85;;;1.83;;
74849;SDS011;63397;47.480;19.238;2023-03-18T00:29:44;4.47;;;1.60;;
74849;SDS011;63397;47.480;19.238;2023-03-18T00:32:47;7.18;;;2.35;;
74849;SDS011;63397;47.480;19.238;2023-03-18T00:35:50;6.10;;;2.55;;
74849;SDS011;63397;47.480;19.238;2023-03-18T00:38:52;8.23;;;2.75;;
74849;SDS011;63397;47.480;19.238;2023-03-18T00:41:58;6.38;;;2.42;;
74849;SDS011;63397;47.480;19.238;2023-03-18T00:45:07;5.20;;;1.77;;
74849;SDS011;63397;47.480;19.238;2023-03-18T00:48:09;5.50;;;2.38;;
74849;SDS011;63397;47.480;19.238;2023-03-18T00:51:13;5.82;;;2.65;;
74849;SDS011;63397;47.480;19.238;2023-03-18T00:54:18;7.57;;;2.35;;
74849;SDS011;63397;47.480;19.238;2023-03-18T00:57:22;9.70;;;2.17;;
74849;SDS011;63397;47.480;19.238;2023-03-18T01:00:25;5.63;;;1.77;;
74849;SDS011;63397;47.480;19.238;2023-03-18T01:03:28;5.32;;;2.20;;
74849;SDS011;63397;47.480;19.238;2023-03-18T01:06:33;6.80;;;2.42;;
74849;SDS011;63397;47.480;19.238;2023-03-18T01:09:36;7.35;;;2.58;;
74849;SDS011;63397;47.480;19.238;2023-03-18T01:12:42;7.03;;;2.42;;
74849;SDS011;63397;47.480;19.238;2023-03-18T01:15:44;8.67;;;3.17;;
74849;SDS011;63397;47.480;19.238;2023-03-18T01:18:47;4.82;;;2.00;;
74849;SDS011;63397;47.480;19.238;2023-03-18T01:21:49;7.90;;;2.90;;
74849;SDS011;63397;47.480;19.238;2023-03-18T01:24:51;5.10;;;1.48;;
74849;SDS011;63397;47.480;19.238;2023-03-18T01:28:00;6.28;;;1.98;;
74849;SDS011;63397;47.480;19.238;2023-03-18T01:31:02;7.33;;;2.20;;
74849;SDS011;63397;47.480;19.238;2023-03-18T01:34:05;11.25;;;3.80;;
74849;SDS011;63397;47.480;19.238;2023-03-18T01:37:17;6.95;;;2.72;;
74849;SDS011;63397;47.480;19.238;2023-03-18T01:40:24;4.55;;;2.42;;
74849;SDS011;63397;47.480;19.238;2023-03-18T01:43:30;6.80;;;2.95;;
74849;SDS011;63397;47.480;19.238;2023-03-18T01:46:43;9.50;;;3.73;;
74849;SDS011;63397;47.480;19.238;2023-03-18T01:49:47;8.25;;;3.13;;
74849;SDS011;63397;47.480;19.238;2023-03-18T01:52:51;5.70;;;2.78;;
74849;SDS011;63397;47.480;19.238;2023-03-18T01:55:55;2.25;;;1.02;;
74849;SDS011;63397;47.480;19.238;2023-03-18T01:58:58;6.78;;;2.75;;
74849;SDS011;63397;47.480;19.238;2023-03-18T02:02:06;9.63;;;3.90;;
74849;SDS011;63397;47.480;19.238;2023-03-18T02:05:11;5.85;;;2.40;;
74849;SDS011;63397;47.480;19.238;2023-03-18T02:08:16;6.75;;;3.60;;
74849;SDS011;63397;47.480;19.238;2023-03-18T02:11:18;6.75;;;2.03;;
74849;SDS011;63397;47.480;19.238;2023-03-18T02:14:22;6.70;;;3.25;;
74849;SDS011;63397;47.480;19.238;2023-03-18T02:17:27;6.80;;;2.43;;
74849;SDS011;63397;47.480;19.238;2023-03-18T02:27:13;12.18;;;3.75;;
74849;SDS011;63397;47.480;19.238;2023-03-18T02:30:20;7.85;;;3.10;;
74849;SDS011;63397;47.480;19.238;2023-03-18T02:33:35;10.40;;;3.30;;
74849;SDS011;63397;47.480;19.238;2023-03-18T02:36:40;10.57;;;3.85;;
74849;SDS011;63397;47.480;19.238;2023-03-18T02:39:44;6.13;;;2.28;;
74849;SDS011;63397;47.480;19.238;2023-03-18T02:42:46;8.65;;;2.47;;
74849;SDS011;63397;47.480;19.238;2023-03-18T02:49:10;9.63;;;2.63;;
74849;SDS011;63397;47.480;19.238;2023-03-18T02:52:13;7.45;;;2.55;;
74849;SDS011;63397;47.480;19.238;2023-03-18T02:55:15;4.00;;;1.48;;
74849;SDS011;63397;47.480;19.238;2023-03-18T02:58:17;4.13;;;1.95;;
74849;SDS011;63397;47.480;19.238;2023-03-18T03:01:21;5.15;;;1.92;;
74849;SDS011;63397;47.480;19.238;2023-03-18T03:04:24;8.57;;;2.10;;
74849;SDS011;63397;47.480;19.238;2023-03-18T03:07:27;4.20;;;2.08;;
74849;SDS011;63397;47.480;19.238;2023-03-18T03:10:31;4.68;;;1.98;;
74849;SDS011;63397;47.480;19.238;2023-03-18T03:13:34;6.70;;;2.13;;
74849;SDS011;63397;47.480;19.238;2023-03-18T03:16:37;4.90;;;2.22;;
74849;SDS011;63397;47.480;19.238;2023-03-18T03:19:39;7.03;;;2.60;;
74849;SDS011;63397;47.480;19.238;2023-03-18T03:22:42;6.72;;;1.98;;
74849;SDS011;63397;47.480;19.238;2023-03-18T03:25:44;4.28;;;1.67;;
74849;SDS011;63397;47.480;19.238;2023-03-18T03:28:46;6.53;;;1.92;;
74849;SDS011;63397;47.480;19.238;2023-03-18T03:31:48;7.68;;;1.90;;
74849;SDS011;63397;47.480;19.238;2023-03-18T03:34:51;5.07;;;1.83;;
74849;SDS011;63397;47.480;19.238;2023-03-18T03:37:53;6.70;;;1.98;;
74849;SDS011;63397;47.480;19.238;2023-03-18T03:40:57;8.75;;;2.75;;
74849;SDS011;63397;47.480;19.238;2023-03-18T03:43:59;10.75;;;2.60;;
74849;SDS011;63397;47.480;19.238;2023-03-18T03:47:02;7.32;;;3.20;;
74849;SDS011;63397;47.480;19.238;2023-03-18T03:50:05;6.13;;;2.33;;
74849;SDS011;63397;47.480;19.238;2023-03-18T03:53:08;4.75;;;1.77;;
74849;SDS011;63397;47.480;19.238;2023-03-18T03:56:11;4.30;;;2.00;;
74849;SDS011;63397;47.480;19.238;2023-03-18T03:59:13;9.52;;;2.03;;
74849;SDS011;63397;47.480;19.238;2023-03-18T04:02:43;9.20;;;1.80;;
74849;SDS011;63397;47.480;19.238;2023-03-18T04:05:46;4.17;;;1.47;;
74849;SDS011;63397;47.480;19.238;2023-03-18T04:08:56;5.63;;;2.05;;
74849;SDS011;63397;47.480;19.238;2023-03-18T04:11:59;5.03;;;2.28;;
74849;SDS011;63397;47.480;19.238;2023-03-18T04:15:01;9.73;;;2.80;;
74849;SDS011;63397;47.480;19.238;2023-03-18T04:18:07;6.88;;;3.08;;
74849;SDS011;63397;47.480;19.238;2023-03-18T04:21:11;5.93;;;2.10;;
74849;SDS011;63397;47.480;19.238;2023-03-18T04:24:19;7.22;;;2.30;;
74849;SDS011;63397;47.480;19.238;2023-03-18T04:27:21;4.00;;;1.27;;
74849;SDS011;63397;47.480;19.238;2023-03-18T04:30:24;2.47;;;1.05;;
74849;SDS011;63397;47.480;19.238;2023-03-18T04:33:37;5.43;;;2.47;;
74849;SDS011;63397;47.480;19.238;2023-03-18T04:36:39;2.40;;;0.90;;
74849;SDS011;63397;47.480;19.238;2023-03-18T04:39:42;5.75;;;2.47;;
74849;SDS011;63397;47.480;19.238;2023-03-18T04:42:45;5.95;;;2.10;;
74849;SDS011;63397;47.480;19.238;2023-03-18T04:45:50;6.32;;;2.15;;
74849;SDS011;63397;47.480;19.238;2023-03-18T04:48:54;4.50;;;2.33;;
74849;SDS011;63397;47.480;19.238;2023-03-18T04:51:56;7.23;;;2.00;;
74849;SDS011;63397;47.480;19.238;2023-03-18T04:55:05;3.38;;;1.35;;
74849;SDS011;63397;47.480;19.238;2023-03-18T04:58:10;7.90;;;2.05;;
74849;SDS011;63397;47.480;19.238;2023-03-18T05:01:18;9.30;;;2.30;;
74849;SDS011;63397;47.480;19.238;2023-03-18T05:04:21;3.50;;;1.30;;
74849;SDS011;63397;47.480;19.238;2023-03-18T05:07:26;9.93;;;3.37;;
74849;SDS011;63397;47.480;19.238;2023-03-18T05:10:35;4.35;;;2.28;;
74849;SDS011;63397;47.480;19.238;2023-03-18T05:13:38;4.50;;;1.65;;
74849;SDS011;63397;47.480;19.238;2023-03-18T05:16:43;6.63;;;2.45;;
74849;SDS011;63397;47.480;19.238;2023-03-18T05:19:47;5.85;;;2.15;;
74849;SDS011;63397;47.480;19.238;2023-03-18T05:22:53;6.13;;;1.53;;
74849;SDS011;63397;47.480;19.238;2023-03-18T05:26:09;13.35;;;3.20;;
74849;SDS011;63397;47.480;19.238;2023-03-18T05:29:15;9.65;;;3.92;;
74849;SDS011;63397;47.480;19.238;2023-03-18T05:32:52;7.88;;;2.10;;
74849;SDS011;63397;47.480;19.238;2023-03-18T05:36:05;7.57;;;2.95;;
74849;SDS011;63397;47.480;19.238;2023-03-18T05:39:14;4.50;;;1.47;;
74849;SDS011;63397;47.480;19.238;2023-03-18T05:42:16;6.65;;;2.40;;
74849;SDS011;63397;47.480;19.238;2023-03-18T05:45:19;6.32;;;2.08;;
74849;SDS011;63397;47.480;19.238;2023-03-18T05:48:27;5.90;;;2.08;;
74849;SDS011;63397;47.480;19.238;2023-03-18T05:51:33;6.03;;;2.53;;
74849;SDS011;63397;47.480;19.238;2023-03-18T05:54:35;5.40;;;2.10;;
74849;SDS011;63397;47.480;19.238;2023-03-18T05:57:38;6.38;;;2.35;;
74849;SDS011;63397;47.480;19.238;2023-03-18T06:00:43;5.93;;;2.38;;
74849;SDS011;63397;47.480;19.238;2023-03-18T06:03:46;7.90;;;2.65;;
74849;SDS011;63397;47.480;19.238;2023-03-18T06:06:48;9.15;;;2.45;;
74849;SDS011;63397;47.480;19.238;2023-03-18T06:09:52;5.60;;;2.60;;
74849;SDS011;63397;47.480;19.238;2023-03-18T06:12:54;7.20;;;3.35;;
74849;SDS011;63397;47.480;19.238;2023-03-18T06:15:57;9.73;;;4.32;;
74849;SDS011;63397;47.480;19.238;2023-03-18T06:19:01;8.57;;;2.15;;
74849;SDS011;63397;47.480;19.238;2023-03-18T06:22:04;5.72;;;2.38;;
74849;SDS011;63397;47.480;19.238;2023-03-18T06:25:07;8.13;;;3.07;;
74849;SDS011;63397;47.480;19.238;2023-03-18T06:28:12;4.93;;;2.25;;
74849;SDS011;63397;47.480;19.238;2023-03-18T06:31:15;5.80;;;2.78;;
74849;SDS011;63397;47.480;19.238;2023-03-18T06:34:18;6.82;;;2.85;;
74849;SDS011;63397;47.480;19.238;2023-03-18T06:37:20;6.25;;;2.72;;
74849;SDS011;63397;47.480;19.238;2023-03-18T06:40:23;7.10;;;2.70;;
74849;SDS011;63397;47.480;19.238;2023-03-18T06:43:27;8.13;;;3.03;;
74849;SDS011;63397;47.480;19.238;2023-03-18T06:46:30;4.80;;;1.98;;
74849;SDS011;63397;47.480;19.238;2023-03-18T06:49:35;6.13;;;2.50;;
74849;SDS011;63397;47.480;19.238;2023-03-18T06:52:46;7.38;;;2.72;;
74849;SDS011;63397;47.480;19.238;2023-03-18T06:55:51;8.17;;;2.93;;
74849;SDS011;63397;47.480;19.238;2023-03-18T06:58:58;6.43;;;2.22;;
74849;SDS011;63397;47.480;19.238;2023-03-18T07:02:03;10.15;;;3.63;;
74849;SDS011;63397;47.480;19.238;2023-03-18T07:05:06;5.05;;;2.17;;
74849;SDS011;63397;47.480;19.238;2023-03-18T07:08:10;5.00;;;2.40;;
74849;SDS011;63397;47.480;19.238;2023-03-18T07:11:12;6.90;;;2.57;;
74849;SDS011;63397;47.480;19.238;2023-03-18T07:14:16;7.55;;;2.67;;
74849;SDS011;63397;47.480;19.238;2023-03-18T07:17:20;7.75;;;2.58;;
74849;SDS011;63397;47.480;19.238;2023-03-18T07:20:22;6.10;;;2.42;;
74849;SDS011;63397;47.480;19.238;2023-03-18T07:23:25;6.97;;;2.45;;
74849;SDS011;63397;47.480;19.238;2023-03-18T07:26:30;6.47;;;2.70;;
74849;SDS011;63397;47.480;19.238;2023-03-18T07:29:33;5.80;;;2.17;;
74849;SDS011;63397;47.480;19.238;2023-03-18T07:32:35;5.30;;;2.40;;
74849;SDS011;63397;47.480;19.238;2023-03-18T07:35:38;5.65;;;2.53;;
74849;SDS011;63397;47.480;19.238;2023-03-18T07:38:43;6.63;;;3.22;;
74849;SDS011;63397;47.480;19.238;2023-03-18T07:41:46;8.30;;;2.20;;
74849;SDS011;63397;47.480;19.238;2023-03-18T07:44:55;9.00;;;3.67;;
74849;SDS011;63397;47.480;19.238;2023-03-18T07:47:57;5.15;;;2.33;;
74849;SDS011;63397;47.480;19.238;2023-03-18T07:51:00;5.72;;;2.30;;
74849;SDS011;63397;47.480;19.238;2023-03-18T07:54:02;5.50;;;2.72;;
74849;SDS011;63397;47.480;19.238;2023-03-18T07:57:05;5.27;;;1.90;;
74849;SDS011;63397;47.480;19.238;2023-03-18T08:00:09;6.20;;;2.45;;
74849;SDS011;63397;47.480;19.238;2023-03-18T08:03:14;4.60;;;1.73;;
74849;SDS011;63397;47.480;19.238;2023-03-18T08:06:17;4.97;;;1.45;;
74849;SDS011;63397;47.480;19.238;2023-03-18T08:09:21;4.57;;;1.95;;
74849;SDS011;63397;47.480;19.238;2023-03-18T08:12:24;5.13;;;1.60;;
74849;SDS011;63397;47.480;19.238;2023-03-18T08:15:26;4.60;;;1.80;;
74849;SDS011;63397;47.480;19.238;2023-03-18T08:18:29;4.53;;;1.75;;
74849;SDS011;63397;47.480;19.238;2023-03-18T08:21:31;3.05;;;1.33;;
74849;SDS011;63397;47.480;19.238;2023-03-18T08:24:33;3.67;;;1.75;;
74849;SDS011;63397;47.480;19.238;2023-03-18T08:27:35;5.53;;;1.87;;
74849;SDS011;63397;47.480;19.238;2023-03-18T08:30:38;4.68;;;1.55;;
74849;SDS011;63397;47.480;19.238;2023-03-18T08:33:40;4.35;;;1.65;;
74849;SDS011;63397;47.480;19.238;2023-03-18T08:36:43;5.78;;;1.20;;
74849;SDS011;63397;47.480;19.238;2023-03-18T08:39:46;5.38;;;1.38;;
74849;SDS011;63397;47.480;19.238;2023-03-18T08:42:48;3.70;;;1.00;;
74849;SDS011;63397;47.480;19.238;2023-03-18T08:45:53;6.18;;;2.10;;
74849;SDS011;63397;47.480;19.238;2023-03-18T08:48:55;3.75;;;1.25;;
74849;SDS011;63397;47.480;19.238;2023-03-18T08:51:58;7.57;;;2.70;;
74849;SDS011;63397;47.480;19.238;2023-03-18T08:55:00;6.45;;;2.28;;
74849;SDS011;63397;47.480;19.238;2023-03-18T08:58:03;3.60;;;1.60;;
74849;SDS011;63397;47.480;19.238;2023-03-18T09:01:06;6.57;;;2.47;;
74849;SDS011;63397;47.480;19.238;2023-03-18T09:04:12;8.35;;;2.15;;
74849;SDS011;63397;47.480;19.238;2023-03-18T09:07:15;4.13;;;1.60;;
74849;SDS011;63397;47.480;19.238;2023-03-18T09:10:20;7.05;;;2.45;;
74849;SDS011;63397;47.480;19.238;2023-03-18T09:13:22;5.63;;;2.00;;
74849;SDS011;63397;47.480;19.238;2023-03-18T09:16:24;4.32;;;1.83;;
74849;SDS011;63397;47.480;19.238;2023-03-18T09:19:26;5.13;;;2.10;;
74849;SDS011;63397;47.480;19.238;2023-03-18T09:22:29;3.55;;;1.58;;
74849;SDS011;63397;47.480;19.238;2023-03-18T09:25:31;4.65;;;1.67;;
74849;SDS011;63397;47.480;19.238;2023-03-18T09:28:35;2.20;;;0.97;;
74849;SDS011;63397;47.480;19.238;2023-03-18T09:31:38;7.97;;;4.35;;
74849;SDS011;63397;47.480;19.238;2023-03-18T09:34:41;4.47;;;1.73;;
74849;SDS011;63397;47.480;19.238;2023-03-18T09:37:43;6.65;;;2.90;;
74849;SDS011;63397;47.480;19.238;2023-03-18T09:41:01;4.50;;;2.25;;
74849;SDS011;63397;47.480;19.238;2023-03-18T09:44:08;1.63;;;0.97;;
74849;SDS011;63397;47.480;19.238;2023-03-18T09:53:44;9.88;;;2.20;;
74849;SDS011;63397;47.480;19.238;2023-03-18T09:56:49;5.82;;;2.80;;
74849;SDS011;63397;47.480;19.238;2023-03-18T09:59:57;5.87;;;2.10;;
74849;SDS011;63397;47.480;19.238;2023-03-18T10:06:16;3.67;;;1.73;;
74849;SDS011;63397;47.480;19.238;2023-03-18T10:09:20;4.57;;;1.42;;
74849;SDS011;63397;47.480;19.238;2023-03-18T10:15:45;7.30;;;2.90;;
74849;SDS011;63397;47.480;19.238;2023-03-18T10:18:48;4.05;;;1.65;;
74849;SDS011;63397;47.480;19.238;2023-03-18T10:22:03;5.45;;;2.35;;
74849;SDS011;63397;47.480;19.238;2023-03-18T10:28:34;4.40;;;1.88;;
74849;SDS011;63397;47.480;19.238;2023-03-18T10:41:15;5.20;;;2.00;;
74849;SDS011;63397;47.480;19.238;2023-03-18T10:44:23;6.32;;;2.35;;
74849;SDS011;63397;47.480;19.238;2023-03-18T10:47:27;5.27;;;2.03;;
74849;SDS011;63397;47.480;19.238;2023-03-18T10:50:35;7.60;;;2.50;;
74849;SDS011;63397;47.480;19.238;2023-03-18T10:53:58;6.53;;;1.88;;
74849;SDS011;63397;47.480;19.238;2023-03-18T10:57:04;1.67;;;0.95;;
74849;SDS011;63397;47.480;19.238;2023-03-18T11:00:22;2.60;;;1.13;;
74849;SDS011;63397;47.480;19.238;2023-03-18T11:03:30;7.90;;;2.90;;
74849;SDS011;63397;47.480;19.238;2023-03-18T11:09:51;5.88;;;2.75;;
74849;SDS011;63397;47.480;19.238;2023-03-18T11:12:56;4.53;;;1.98;;
74849;SDS011;63397;47.480;19.238;2023-03-18T11:16:01;4.22;;;1.38;;
74849;SDS011;63397;47.480;19.238;2023-03-18T11:22:25;3.90;;;1.63;;
74849;SDS011;63397;47.480;19.238;2023-03-18T11:25:28;6.45;;;3.05;;
74849;SDS011;63397;47.480;19.238;2023-03-18T11:28:31;4.00;;;1.67;;
74849;SDS011;63397;47.480;19.238;2023-03-18T11:31:45;9.05;;;4.45;;
74849;SDS011;63397;47.480;19.238;2023-03-18T11:34:52;8.17;;;2.87;;
74849;SDS011;63397;47.480;19.238;2023-03-18T11:37:55;5.38;;;2.53;;
74849;SDS011;63397;47.480;19.238;2023-03-18T11:41:07;8.43;;;3.88;;
74849;SDS011;63397;47.480;19.238;2023-03-18T11:44:16;7.82;;;3.20;;
74849;SDS011;63397;47.480;19.238;2023-03-18T11:47:23;4.65;;;2.25;;
74849;SDS011;63397;47.480;19.238;2023-03-18T11:50:37;6.40;;;2.37;;
74849;SDS011;63397;47.480;19.238;2023-03-18T12:00:23;8.77;;;3.63;;
74849;SDS011;63397;47.480;19.238;2023-03-18T12:07:14;8.53;;;3.50;;
74849;SDS011;63397;47.480;19.238;2023-03-18T12:26:11;10.43;;;3.30;;
74849;SDS011;63397;47.480;19.238;2023-03-18T12:45:09;5.70;;;2.30;;
74849;SDS011;63397;47.480;19.238;2023-03-18T12:48:15;6.68;;;2.65;;
74849;SDS011;63397;47.480;19.238;2023-03-18T12:51:24;6.25;;;3.05;;
74849;SDS011;63397;47.480;19.238;2023-03-18T13:01:07;8.60;;;4.00;;
74849;SDS011;63397;47.480;19.238;2023-03-18T13:04:19;5.32;;;2.40;;
74849;SDS011;63397;47.480;19.238;2023-03-18T13:07:24;8.60;;;3.60;;
74849;SDS011;63397;47.480;19.238;2023-03-18T13:10:33;7.13;;;3.23;;
74849;SDS011;63397;47.480;19.238;2023-03-18T13:13:37;8.52;;;2.97;;
74849;SDS011;63397;47.480;19.238;2023-03-18T13:16:40;7.95;;;3.50;;
74849;SDS011;63397;47.480;19.238;2023-03-18T13:19:43;5.00;;;1.85;;
74849;SDS011;63397;47.480;19.238;2023-03-18T13:39:18;6.82;;;3.00;;
74849;SDS011;63397;47.480;19.238;2023-03-18T13:42:27;5.97;;;2.17;;
74849;SDS011;63397;47.480;19.238;2023-03-18T13:45:31;6.45;;;3.08;;
74849;SDS011;63397;47.480;19.238;2023-03-18T13:48:34;6.93;;;3.20;;
74849;SDS011;63397;47.480;19.238;2023-03-18T13:54:40;5.78;;;2.85;;
74849;SDS011;63397;47.480;19.238;2023-03-18T13:58:26;5.43;;;2.03;;
74849;SDS011;63397;47.480;19.238;2023-03-18T14:01:24;4.65;;;2.03;;
74849;SDS011;63397;47.480;19.238;2023-03-18T14:04:30;5.90;;;2.42;;
74849;SDS011;63397;47.480;19.238;2023-03-18T14:07:33;5.78;;;2.25;;
74849;SDS011;63397;47.480;19.238;2023-03-18T14:10:47;5.88;;;2.58;;
74849;SDS011;63397;47.480;19.238;2023-03-18T14:14:23;4.83;;;2.00;;
74849;SDS011;63397;47.480;19.238;2023-03-18T14:17:15;6.20;;;2.08;;
74849;SDS011;63397;47.480;19.238;2023-03-18T14:20:20;7.57;;;2.15;;
74849;SDS011;63397;47.480;19.238;2023-03-18T14:23:35;6.85;;;2.40;;
74849;SDS011;63397;47.480;19.238;2023-03-18T14:26:40;4.18;;;1.92;;
74849;SDS011;63397;47.480;19.238;2023-03-18T14:29:44;4.63;;;2.20;;
74849;SDS011;63397;47.480;19.238;2023-03-18T14:32:58;2.63;;;1.00;;
74849;SDS011;63397;47.480;19.238;2023-03-18T14:39:03;5.50;;;2.10;;
74849;SDS011;63397;47.480;19.238;2023-03-18T14:42:28;4.35;;;1.77;;
74849;SDS011;63397;47.480;19.238;2023-03-18T14:45:33;4.50;;;1.57;;
74849;SDS011;63397;47.480;19.238;2023-03-18T14:48:36;3.78;;;1.58;;
74849;SDS011;63397;47.480;19.238;2023-03-18T14:51:39;4.35;;;1.50;;
74849;SDS011;63397;47.480;19.238;2023-03-18T14:54:42;5.70;;;2.08;;
74849;SDS011;63397;47.480;19.238;2023-03-18T14:57:45;4.88;;;2.20;;
74849;SDS011;63397;47.480;19.238;2023-03-18T15:00:51;4.03;;;1.60;;
74849;SDS011;63397;47.480;19.238;2023-03-18T15:03:55;4.07;;;1.92;;
74849;SDS011;63397;47.480;19.238;2023-03-18T15:06:59;4.97;;;2.15;;
74849;SDS011;63397;47.480;19.238;2023-03-18T15:10:03;5.95;;;2.03;;
74849;SDS011;63397;47.480;19.238;2023-03-18T15:13:14;4.57;;;1.80;;
74849;SDS011;63397;47.480;19.238;2023-03-18T15:16:18;4.00;;;1.63;;
74849;SDS011;63397;47.480;19.238;2023-03-18T15:19:21;4.47;;;1.80;;
74849;SDS011;63397;47.480;19.238;2023-03-18T15:22:24;5.32;;;2.25;;
74849;SDS011;63397;47.480;19.238;2023-03-18T15:25:29;3.92;;;1.60;;
74849;SDS011;63397;47.480;19.238;2023-03-18T15:28:31;8.23;;;2.75;;
74849;SDS011;63397;47.480;19.238;2023-03-18T15:31:38;4.70;;;1.80;;
74849;SDS011;63397;47.480;19.238;2023-03-18T15:34:43;4.70;;;1.75;;
74849;SDS011;63397;47.480;19.238;2023-03-18T15:37:46;8.15;;;2.60;;
74849;SDS011;63397;47.480;19.238;2023-03-18T15:41:08;5.68;;;2.17;;
74849;SDS011;63397;47.480;19.238;2023-03-18T15:44:14;4.20;;;1.50;;
74849;SDS011;63397;47.480;19.238;2023-03-18T15:47:19;4.63;;;1.80;;
74849;SDS011;63397;47.480;19.238;2023-03-18T15:50:24;6.07;;;2.10;;
74849;SDS011;63397;47.480;19.238;2023-03-18T15:53:27;3.70;;;1.65;;
74849;SDS011;63397;47.480;19.238;2023-03-18T15:56:34;5.75;;;2.03;;
74849;SDS011;63397;47.480;19.238;2023-03-18T15:59:37;3.38;;;1.42;;
74849;SDS011;63397;47.480;19.238;2023-03-18T16:02:40;2.47;;;1.00;;
74849;SDS011;63397;47.480;19.238;2023-03-18T16:05:42;3.38;;;1.30;;
74849;SDS011;63397;47.480;19.238;2023-03-18T16:08:45;5.03;;;2.20;;
74849;SDS011;63397;47.480;19.238;2023-03-18T16:11:56;6.47;;;1.90;;
74849;SDS011;63397;47.480;19.238;2023-03-18T16:15:00;4.40;;;1.40;;
74849;SDS011;63397;47.480;19.238;2023-03-18T16:18:03;5.20;;;1.50;;
74849;SDS011;63397;47.480;19.238;2023-03-18T16:21:05;4.75;;;1.70;;
74849;SDS011;63397;47.480;19.238;2023-03-18T16:24:07;4.57;;;1.75;;
74849;SDS011;63397;47.480;19.238;2023-03-18T16:27:53;6.38;;;1.92;;
74849;SDS011;63397;47.480;19.238;2023-03-18T16:30:35;4.05;;;1.30;;
74849;SDS011;63397;47.480;19.238;2023-03-18T16:33:41;3.53;;;1.50;;
74849;SDS011;63397;47.480;19.238;2023-03-18T16:36:44;5.15;;;1.80;;
74849;SDS011;63397;47.480;19.238;2023-03-18T16:39:47;4.57;;;1.90;;
74849;SDS011;63397;47.480;19.238;2023-03-18T16:42:49;5.00;;;1.70;;
74849;SDS011;63397;47.480;19.238;2023-03-18T16:45:52;7.05;;;1.90;;
74849;SDS011;63397;47.480;19.238;2023-03-18T16:48:55;4.70;;;1.57;;
74849;SDS011;63397;47.480;19.238;2023-03-18T16:51:57;7.18;;;2.45;;
74849;SDS011;63397;47.480;19.238;2023-03-18T16:55:00;6.00;;;2.50;;
74849;SDS011;63397;47.480;19.238;2023-03-18T16:58:03;5.28;;;2.15;;
74849;SDS011;63397;47.480;19.238;2023-03-18T17:01:05;4.55;;;1.75;;
74849;SDS011;63397;47.480;19.238;2023-03-18T17:07:20;6.80;;;2.30;;
74849;SDS011;63397;47.480;19.238;2023-03-18T17:10:24;9.98;;;2.58;;
74849;SDS011;63397;47.480;19.238;2023-03-18T17:13:28;6.60;;;2.70;;
74849;SDS011;63397;47.480;19.238;2023-03-18T17:16:30;7.40;;;3.08;;
74849;SDS011;63397;47.480;19.238;2023-03-18T17:19:33;8.57;;;3.27;;
74849;SDS011;63397;47.480;19.238;2023-03-18T17:22:36;9.50;;;3.40;;
74849;SDS011;63397;47.480;19.238;2023-03-18T17:25:46;7.13;;;2.92;;
74849;SDS011;63397;47.480;19.238;2023-03-18T17:28:48;7.90;;;2.80;;
74849;SDS011;63397;47.480;19.238;2023-03-18T17:31:51;8.40;;;3.22;;
74849;SDS011;63397;47.480;19.238;2023-03-18T17:34:54;6.70;;;2.73;;
74849;SDS011;63397;47.480;19.238;2023-03-18T17:37:56;9.85;;;3.60;;
74849;SDS011;63397;47.480;19.238;2023-03-18T17:40:59;16.35;;;4.25;;
74849;SDS011;63397;47.480;19.238;2023-03-18T17:44:09;13.38;;;4.38;;
74849;SDS011;63397;47.480;19.238;2023-03-18T17:47:15;12.45;;;5.10;;
74849;SDS011;63397;47.480;19.238;2023-03-18T17:50:20;14.50;;;6.57;;
74849;SDS011;63397;47.480;19.238;2023-03-18T17:56:25;15.70;;;6.32;;
74849;SDS011;63397;47.480;19.238;2023-03-18T17:59:29;20.13;;;6.47;;
74849;SDS011;63397;47.480;19.238;2023-03-18T18:02:31;12.65;;;5.85;;
74849;SDS011;63397;47.480;19.238;2023-03-18T18:05:34;14.90;;;5.73;;
74849;SDS011;63397;47.480;19.238;2023-03-18T18:08:37;14.10;;;5.05;;
74849;SDS011;63397;47.480;19.238;2023-03-18T18:11:40;14.13;;;6.18;;
74849;SDS011;63397;47.480;19.238;2023-03-18T18:14:45;16.65;;;6.22;;
74849;SDS011;63397;47.480;19.238;2023-03-18T18:17:48;14.07;;;6.18;;
74849;SDS011;63397;47.480;19.238;2023-03-18T18:20:55;15.93;;;6.57;;
74849;SDS011;63397;47.480;19.238;2023-03-18T18:23:58;18.42;;;6.75;;
74849;SDS011;63397;47.480;19.238;2023-03-18T18:27:00;16.65;;;7.22;;
74849;SDS011;63397;47.480;19.238;2023-03-18T18:30:04;17.45;;;6.82;;
74849;SDS011;63397;47.480;19.238;2023-03-18T18:33:06;18.30;;;6.15;;
74849;SDS011;63397;47.480;19.238;2023-03-18T18:36:09;13.87;;;5.80;;
74849;SDS011;63397;47.480;19.238;2023-03-18T18:39:11;19.08;;;7.28;;
74849;SDS011;63397;47.480;19.238;2023-03-18T18:42:14;14.13;;;6.60;;
74849;SDS011;63397;47.480;19.238;2023-03-18T18:45:17;15.35;;;6.15;;
74849;SDS011;63397;47.480;19.238;2023-03-18T18:51:25;12.60;;;4.83;;
74849;SDS011;63397;47.480;19.238;2023-03-18T18:54:28;12.23;;;5.57;;
74849;SDS011;63397;47.480;19.238;2023-03-18T18:57:30;12.32;;;5.20;;
74849;SDS011;63397;47.480;19.238;2023-03-18T19:00:34;15.68;;;5.80;;
74849;SDS011;63397;47.480;19.238;2023-03-18T19:03:37;16.67;;;5.53;;
74849;SDS011;63397;47.480;19.238;2023-03-18T19:06:40;15.33;;;5.00;;
74849;SDS011;63397;47.480;19.238;2023-03-18T19:09:42;12.93;;;5.93;;
74849;SDS011;63397;47.480;19.238;2023-03-18T19:12:45;12.73;;;5.07;;
74849;SDS011;63397;47.480;19.238;2023-03-18T19:15:49;15.32;;;4.30;;
74849;SDS011;63397;47.480;19.238;2023-03-18T19:18:52;9.98;;;3.30;;
74849;SDS011;63397;47.480;19.238;2023-03-18T19:21:55;9.27;;;3.43;;
74849;SDS011;63397;47.480;19.238;2023-03-18T19:24:58;8.43;;;4.38;;
74849;SDS011;63397;47.480;19.238;2023-03-18T19:28:01;11.63;;;4.00;;
74849;SDS011;63397;47.480;19.238;2023-03-18T19:31:03;9.18;;;4.05;;
74849;SDS011;63397;47.480;19.238;2023-03-18T19:34:11;10.30;;;3.65;;
74849;SDS011;63397;47.480;19.238;2023-03-18T19:37:16;9.03;;;4.30;;
74849;SDS011;63397;47.480;19.238;2023-03-18T19:43:21;7.53;;;3.08;;
74849;SDS011;63397;47.480;19.238;2023-03-18T19:46:26;8.73;;;3.30;;
74849;SDS011;63397;47.480;19.238;2023-03-18T19:49:32;9.40;;;4.45;;
74849;SDS011;63397;47.480;19.238;2023-03-18T19:52:37;7.37;;;3.70;;
74849;SDS011;63397;47.480;19.238;2023-03-18T19:55:39;6.68;;;3.03;;
74849;SDS011;63397;47.480;19.238;2023-03-18T19:58:42;7.00;;;3.20;;
74849;SDS011;63397;47.480;19.238;2023-03-18T20:01:45;7.25;;;3.47;;
74849;SDS011;63397;47.480;19.238;2023-03-18T20:04:48;9.27;;;3.83;;
74849;SDS011;63397;47.480;19.238;2023-03-18T20:07:51;10.37;;;4.63;;
74849;SDS011;63397;47.480;19.238;2023-03-18T20:10:54;8.02;;;3.75;;
74849;SDS011;63397;47.480;19.238;2023-03-18T20:13:56;9.40;;;4.18;;
74849;SDS011;63397;47.480;19.238;2023-03-18T20:16:58;8.55;;;3.92;;
74849;SDS011;63397;47.480;19.238;2023-03-18T20:20:05;10.77;;;3.67;;
74849;SDS011;63397;47.480;19.238;2023-03-18T20:23:12;7.50;;;3.13;;